createdAt,value
2018-10-18T00:01:50.213Z,100.00
2018-10-18T00:04:19.057Z,100.00
2018-10-18T00:06:47.864Z,100.00
2018-10-18T00:09:16.738Z,100.00
2018-10-18T00:11:45.661Z,100.00
2018-10-18T00:14:14.592Z,100.00
2018-10-18T00:16:43.389Z,100.00
2018-10-18T00:19:12.300Z,100.00
2018-10-18T00:21:41.083Z,100.00
2018-10-18T00:24:10.262Z,100.00
2018-10-18T00:26:39.336Z,100.00
2018-10-18T00:29:08.184Z,100.00
2018-10-18T00:31:36.981Z,100.00
2018-10-18T00:34:05.870Z,100.00
2018-10-18T00:36:34.902Z,100.00
2018-10-18T00:39:06.380Z,100.00
2018-10-18T00:41:35.437Z,100.00
2018-10-18T00:44:05.209Z,100.00
2018-10-18T00:46:34.103Z,100.00
2018-10-18T00:49:03.014Z,100.00
2018-10-18T00:51:31.823Z,100.00
2018-10-18T00:54:00.720Z,100.00
2018-10-18T00:56:29.554Z,100.00
2018-10-18T00:58:58.320Z,100.00
2018-10-18T01:01:27.233Z,100.00
2018-10-18T01:03:56.093Z,100.00
2018-10-18T01:06:24.974Z,100.00
2018-10-18T01:08:53.780Z,100.00
2018-10-18T01:11:22.621Z,100.00
2018-10-18T01:13:51.480Z,100.00
2018-10-18T01:16:20.317Z,100.00
2018-10-18T01:18:49.134Z,100.00
2018-10-18T01:21:17.981Z,100.00
2018-10-18T01:23:46.745Z,100.00
2018-10-18T01:26:15.773Z,100.00
2018-10-18T01:28:44.547Z,100.00
2018-10-18T01:31:13.400Z,100.00
2018-10-18T01:33:42.216Z,100.00
2018-10-18T01:36:11.176Z,100.00
2018-10-18T01:38:40.154Z,100.00
2018-10-18T01:41:09.021Z,100.00
2018-10-18T01:43:38.471Z,100.00
2018-10-18T01:46:07.395Z,100.00
2018-10-18T01:48:36.221Z,100.00
2018-10-18T01:51:05.403Z,100.00
2018-10-18T01:53:34.254Z,100.00
2018-10-18T01:56:03.524Z,100.00
2018-10-18T01:58:32.349Z,100.00
2018-10-18T02:01:01.448Z,100.00
2018-10-18T02:03:30.339Z,100.00
2018-10-18T02:05:59.495Z,100.00
2018-10-18T02:08:28.338Z,100.00
2018-10-18T02:10:57.141Z,100.00
2018-10-18T02:13:26.045Z,100.00
2018-10-18T02:15:55.400Z,100.00
2018-10-18T02:18:24.835Z,100.00
2018-10-18T02:20:53.656Z,100.00
2018-10-18T02:23:22.501Z,100.00
2018-10-18T02:25:51.403Z,100.00
2018-10-18T02:28:20.326Z,100.00
2018-10-18T02:30:49.163Z,100.00
2018-10-18T02:33:18.024Z,100.00
2018-10-18T02:35:46.868Z,100.00
2018-10-18T02:38:15.739Z,100.00
2018-10-18T02:40:44.610Z,100.00
2018-10-18T02:43:13.881Z,100.00
2018-10-18T02:45:42.701Z,100.00
2018-10-18T02:48:11.584Z,100.00
2018-10-18T02:50:40.396Z,100.00
2018-10-18T02:53:09.440Z,100.00
2018-10-18T02:55:38.260Z,100.00
2018-10-18T02:58:07.103Z,100.00
2018-10-18T03:00:35.922Z,100.00
2018-10-18T03:03:05.092Z,100.00
2018-10-18T03:05:34.025Z,100.00
2018-10-18T03:08:02.932Z,100.00
2018-10-18T03:10:31.826Z,100.00
2018-10-18T03:13:00.989Z,100.00
2018-10-18T03:15:29.885Z,100.00
2018-10-18T03:17:58.857Z,100.00
2018-10-18T03:20:27.697Z,100.00
2018-10-18T03:22:56.816Z,100.00
2018-10-18T03:25:25.709Z,100.00
2018-10-18T03:27:54.575Z,100.00
2018-10-18T03:30:23.622Z,100.00
2018-10-18T03:32:52.411Z,100.00
2018-10-18T03:35:21.245Z,100.00
2018-10-18T03:37:50.068Z,100.00
2018-10-18T03:40:18.900Z,100.00
2018-10-18T03:42:47.792Z,100.00
2018-10-18T03:45:18.545Z,100.00
2018-10-18T03:47:47.416Z,100.00
2018-10-18T03:50:16.363Z,100.00
2018-10-18T03:52:45.272Z,100.00
2018-10-18T03:55:14.251Z,100.00
2018-10-18T03:57:43.196Z,100.00
2018-10-18T04:00:12.088Z,100.00
2018-10-18T04:02:40.961Z,100.00
2018-10-18T04:05:10.167Z,100.00
2018-10-18T04:07:39.225Z,100.00
2018-10-18T04:10:08.324Z,100.00
2018-10-18T04:12:37.525Z,100.00
2018-10-18T04:15:06.920Z,100.00
2018-10-18T04:17:35.802Z,100.00
2018-10-18T04:20:05.869Z,100.00
2018-10-18T04:22:34.718Z,100.00
2018-10-18T04:25:03.755Z,100.00
2018-10-18T04:27:32.573Z,100.00
2018-10-18T04:30:01.410Z,100.00
2018-10-18T04:32:30.556Z,100.00
2018-10-18T04:34:59.423Z,100.00
2018-10-18T04:37:28.364Z,100.00
2018-10-18T04:39:57.180Z,100.00
2018-10-18T04:42:26.093Z,100.00
2018-10-18T04:44:55.011Z,100.00
2018-10-18T04:47:23.956Z,100.00
2018-10-18T04:49:52.680Z,100.00
2018-10-18T04:52:21.581Z,100.00
2018-10-18T04:54:50.397Z,100.00
2018-10-18T04:57:19.368Z,100.00
2018-10-18T04:59:48.281Z,100.00
2018-10-18T05:02:17.100Z,100.00
2018-10-18T05:05:02.869Z,100.00
2018-10-18T05:07:32.738Z,100.00
2018-10-18T05:10:01.617Z,100.00
2018-10-18T05:12:30.440Z,100.00
2018-10-18T05:14:59.320Z,100.00
2018-10-18T05:17:28.166Z,100.00
2018-10-18T05:19:57.247Z,100.00
2018-10-18T05:22:26.068Z,100.00
2018-10-18T05:24:55.028Z,100.00
2018-10-18T05:27:23.843Z,100.00
2018-10-18T05:29:52.742Z,100.00
2018-10-18T05:32:21.664Z,100.00
2018-10-18T05:34:50.540Z,100.00
2018-10-18T05:37:19.448Z,100.00
2018-10-18T05:39:48.281Z,100.00
2018-10-18T05:42:17.191Z,100.00
2018-10-18T05:44:46.144Z,100.00
2018-10-18T05:47:15.069Z,100.00
2018-10-18T05:49:44.277Z,100.00
2018-10-18T05:52:13.079Z,100.00
2018-10-18T05:54:41.906Z,100.00
2018-10-18T05:57:11.052Z,100.00
2018-10-18T05:59:39.937Z,100.00
2018-10-18T06:02:08.930Z,100.00
2018-10-18T06:04:37.794Z,100.00
2018-10-18T06:07:06.849Z,100.00
2018-10-18T06:09:35.807Z,100.00
2018-10-18T06:12:04.851Z,100.00
2018-10-18T06:14:33.912Z,100.00
2018-10-18T06:17:03.113Z,100.00
2018-10-18T06:19:32.031Z,100.00
2018-10-18T06:22:00.993Z,100.00
2018-10-18T06:24:29.922Z,100.00
2018-10-18T06:26:58.818Z,100.00
2018-10-18T06:29:28.122Z,100.00
2018-10-18T06:31:57.064Z,100.00
2018-10-18T06:34:26.031Z,100.00
2018-10-18T06:36:55.370Z,100.00
2018-10-18T06:39:24.228Z,100.00
2018-10-18T06:41:53.192Z,100.00
2018-10-18T06:44:22.428Z,100.00
2018-10-18T06:46:51.464Z,100.00
2018-10-18T06:49:20.396Z,100.00
2018-10-18T06:51:49.269Z,100.00
2018-10-18T06:54:18.507Z,100.00
2018-10-18T06:56:47.315Z,100.00
2018-10-18T06:59:16.325Z,100.00
2018-10-18T07:01:45.216Z,100.00
2018-10-18T07:04:14.164Z,100.00
2018-10-18T07:06:43.020Z,100.00
2018-10-18T07:09:11.925Z,100.00
2018-10-18T07:11:40.880Z,100.00
2018-10-18T07:14:09.789Z,100.00
2018-10-18T07:16:38.676Z,100.00
2018-10-18T07:19:07.607Z,100.00
2018-10-18T07:21:36.475Z,100.00
2018-10-18T07:24:05.748Z,100.00
2018-10-18T07:26:34.589Z,100.00
2018-10-18T07:29:03.950Z,100.00
2018-10-18T07:31:32.818Z,100.00
2018-10-18T07:34:01.703Z,100.00
2018-10-18T07:36:30.609Z,100.00
2018-10-18T07:38:59.884Z,100.00
2018-10-18T07:41:28.773Z,100.00
2018-10-18T07:43:57.914Z,100.00
2018-10-18T07:46:26.844Z,100.00
2018-10-18T07:48:55.828Z,100.00
2018-10-18T07:51:24.756Z,100.00
2018-10-18T07:53:53.653Z,100.00
2018-10-18T07:56:22.547Z,100.00
2018-10-18T07:58:51.418Z,100.00
2018-10-18T08:01:20.380Z,100.00
2018-10-18T08:03:49.263Z,100.00
2018-10-18T08:06:18.253Z,100.00
2018-10-18T08:08:47.164Z,100.00
2018-10-18T08:11:16.103Z,100.00
2018-10-18T08:13:45.063Z,100.00
2018-10-18T08:16:14.013Z,100.00
2018-10-18T08:18:42.861Z,100.00
2018-10-18T08:21:11.778Z,100.00
2018-10-18T08:23:40.639Z,100.00
2018-10-18T08:26:09.624Z,100.00
2018-10-18T08:28:38.461Z,100.00
2018-10-18T08:31:07.797Z,100.00
2018-10-18T08:33:36.599Z,100.00
2018-10-18T08:36:05.618Z,100.00
2018-10-18T08:38:34.585Z,100.00
2018-10-18T08:41:03.520Z,100.00
2018-10-18T08:43:32.846Z,100.00
2018-10-18T08:46:01.685Z,100.00
2018-10-18T08:48:30.611Z,100.00
2018-10-18T08:50:59.555Z,100.00
2018-10-18T08:53:28.455Z,100.00
2018-10-18T08:55:57.316Z,100.00
2018-10-18T08:58:26.246Z,100.00
2018-10-18T09:00:55.151Z,100.00
2018-10-18T09:03:24.171Z,100.00
2018-10-18T09:05:53.024Z,100.00
2018-10-18T09:08:21.977Z,100.00
2018-10-18T09:10:50.803Z,100.00
2018-10-18T09:13:19.794Z,100.00
2018-10-18T09:15:48.720Z,100.00
2018-10-18T09:18:17.821Z,100.00
2018-10-18T09:20:46.989Z,100.00
2018-10-18T09:23:15.943Z,100.00
2018-10-18T09:25:44.828Z,100.00
2018-10-18T09:28:13.785Z,100.00
2018-10-18T09:30:43.028Z,100.00
2018-10-18T09:33:12.056Z,100.00
2018-10-18T09:35:40.927Z,100.00
2018-10-18T09:38:09.796Z,100.00
2018-10-18T09:40:38.808Z,100.00
2018-10-18T09:43:07.715Z,100.00
2018-10-18T09:45:36.617Z,100.00
2018-10-18T09:48:05.546Z,100.00
2018-10-18T09:50:34.530Z,100.00
2018-10-18T09:53:03.450Z,100.00
2018-10-18T09:55:32.492Z,100.00
2018-10-18T09:58:01.365Z,100.00
2018-10-18T10:00:35.936Z,100.00
2018-10-18T10:03:10.459Z,100.00
2018-10-18T10:05:39.386Z,100.00
2018-10-18T10:08:08.588Z,100.00
2018-10-18T10:10:37.836Z,99.72
2018-10-18T10:13:07.556Z,99.12
2018-10-18T10:15:36.424Z,99.73
2018-10-18T10:18:05.425Z,100.00
2018-10-18T10:20:34.325Z,100.00
2018-10-18T10:23:03.217Z,100.00
2018-10-18T10:25:32.219Z,99.31
2018-10-18T10:28:01.116Z,99.00
2018-10-18T10:30:30.017Z,98.94
2018-10-18T10:32:59.001Z,96.93
2018-10-18T10:35:27.927Z,96.69
2018-10-18T10:37:56.838Z,96.47
2018-10-18T10:40:25.745Z,96.12
2018-10-18T10:42:54.794Z,96.08
2018-10-18T10:45:23.705Z,95.31
2018-10-18T10:47:52.950Z,95.97
2018-10-18T10:50:22.280Z,97.26
2018-10-18T10:52:51.234Z,96.15
2018-10-18T10:55:20.114Z,95.87
2018-10-18T10:57:49.040Z,96.19
2018-10-18T11:00:33.800Z,95.92
2018-10-18T11:03:02.969Z,94.51
2018-10-18T11:05:31.795Z,94.88
2018-10-18T11:08:00.708Z,93.71
2018-10-18T11:10:29.634Z,93.35
2018-10-18T11:12:58.588Z,93.06
2018-10-18T11:15:27.490Z,91.62
2018-10-18T11:17:56.428Z,92.09
2018-10-18T11:20:25.337Z,91.40
2018-10-18T11:22:54.200Z,90.99
2018-10-18T11:25:23.092Z,90.46
2018-10-18T11:27:52.064Z,90.71
2018-10-18T11:30:20.942Z,90.11
2018-10-18T11:32:49.924Z,88.14
2018-10-18T11:35:18.768Z,87.23
2018-10-18T11:37:47.676Z,87.52
2018-10-18T11:40:16.677Z,86.48
2018-10-18T11:42:45.741Z,86.46
2018-10-18T11:45:19.554Z,86.80
2018-10-18T11:47:48.425Z,86.29
2018-10-18T11:50:17.539Z,86.06
2018-10-18T11:52:46.640Z,84.98
2018-10-18T11:55:15.851Z,84.94
2018-10-18T11:57:45.096Z,84.30
2018-10-18T12:00:17.631Z,84.28
2018-10-18T12:02:47.918Z,84.20
2018-10-18T12:05:17.353Z,84.08
2018-10-18T12:07:46.189Z,83.16
2018-10-18T12:10:15.143Z,82.89
2018-10-18T12:12:44.005Z,82.61
2018-10-18T12:15:13.041Z,82.85
2018-10-18T12:17:41.929Z,82.02
2018-10-18T12:20:15.564Z,81.28
2018-10-18T12:22:44.420Z,81.13
2018-10-18T12:25:13.949Z,80.78
2018-10-18T12:27:43.335Z,81.61
2018-10-18T12:30:13.275Z,81.11
2018-10-18T12:32:42.098Z,80.79
2018-10-18T12:35:11.056Z,80.35
2018-10-18T12:37:39.937Z,80.27
2018-10-18T12:40:09.438Z,79.41
2018-10-18T12:42:40.324Z,78.76
2018-10-18T12:45:15.293Z,77.18
2018-10-18T12:47:44.491Z,76.23
2018-10-18T12:50:13.732Z,77.78
2018-10-18T12:52:42.474Z,77.77
2018-10-18T12:55:11.332Z,77.74
2018-10-18T12:57:40.276Z,79.38
2018-10-18T13:00:10.409Z,79.82
2018-10-18T13:02:39.461Z,80.18
2018-10-18T13:05:09.794Z,80.11
2018-10-18T13:07:38.799Z,80.05
2018-10-18T13:10:10.104Z,79.76
2018-10-18T13:12:39.406Z,79.41
2018-10-18T13:15:09.971Z,79.16
2018-10-18T13:17:39.227Z,80.12
2018-10-18T13:20:09.554Z,79.19
2018-10-18T13:22:38.608Z,79.10
2018-10-18T13:25:09.244Z,78.13
2018-10-18T13:27:38.542Z,77.46
2018-10-18T13:30:09.208Z,77.85
2018-10-18T13:32:39.109Z,77.96
2018-10-18T13:35:08.767Z,78.11
2018-10-18T13:37:37.700Z,78.61
2018-10-18T13:40:08.059Z,79.01
2018-10-18T13:42:37.379Z,79.56
2018-10-18T13:45:09.065Z,79.01
2018-10-18T13:47:38.137Z,78.52
2018-10-18T13:50:07.918Z,78.44
2018-10-18T13:52:38.592Z,78.21
2018-10-18T13:55:07.454Z,78.44
2018-10-18T13:57:36.437Z,78.89
2018-10-18T14:00:19.764Z,78.69
2018-10-18T14:02:51.836Z,77.52
2018-10-18T14:05:21.125Z,77.62
2018-10-18T14:07:51.100Z,77.39
2018-10-18T14:10:20.085Z,78.60
2018-10-18T14:12:49.408Z,78.00
2018-10-18T14:15:18.531Z,78.39
2018-10-18T14:17:47.470Z,77.02
2018-10-18T14:20:16.711Z,76.98
2018-10-18T14:22:45.525Z,76.06
2018-10-18T14:25:14.440Z,75.93
2018-10-18T14:27:43.563Z,76.19
2018-10-18T14:30:13.267Z,76.38
2018-10-18T14:32:42.090Z,75.36
2018-10-18T14:35:12.320Z,74.39
2018-10-18T14:37:41.157Z,74.64
2018-10-18T14:40:11.179Z,74.79
2018-10-18T14:42:40.135Z,75.61
2018-10-18T14:45:09.610Z,75.45
2018-10-18T14:47:38.681Z,75.52
2018-10-18T14:50:10.742Z,76.51
2018-10-18T14:52:45.384Z,76.28
2018-10-18T14:55:20.260Z,76.50
2018-10-18T14:57:49.301Z,76.59
2018-10-18T15:00:18.193Z,76.61
2018-10-18T15:02:47.176Z,76.60
2018-10-18T15:05:16.259Z,75.94
2018-10-18T15:07:45.005Z,76.72
2018-10-18T15:10:14.288Z,76.99
2018-10-18T15:12:43.371Z,77.92
2018-10-18T15:15:13.411Z,77.79
2018-10-18T15:17:42.434Z,78.53
2018-10-18T15:20:12.214Z,79.37
2018-10-18T15:22:41.965Z,78.81
2018-10-18T15:25:11.791Z,79.10
2018-10-18T15:27:41.434Z,78.50
2018-10-18T15:30:10.997Z,78.86
2018-10-18T15:32:39.910Z,78.84
2018-10-18T15:35:10.259Z,78.41
2018-10-18T15:37:39.646Z,78.83
2018-10-18T15:40:09.043Z,77.71
2018-10-18T15:42:38.050Z,76.71
2018-10-18T15:45:09.789Z,76.78
2018-10-18T15:47:38.888Z,77.78
2018-10-18T15:50:09.345Z,78.30
2018-10-18T15:52:38.363Z,77.45
2018-10-18T15:55:07.753Z,78.23
2018-10-18T15:57:36.689Z,77.32
2018-10-18T16:00:08.090Z,77.68
2018-10-18T16:02:36.943Z,76.94
2018-10-18T16:05:06.383Z,76.83
2018-10-18T16:07:35.295Z,76.79
2018-10-18T16:10:04.771Z,76.73
2018-10-18T16:12:33.689Z,76.50
2018-10-18T16:15:02.558Z,77.01
2018-10-18T16:17:31.905Z,76.70
2018-10-18T16:20:00.916Z,77.04
2018-10-18T16:22:29.722Z,75.82
2018-10-18T16:24:58.608Z,75.38
2018-10-18T16:27:27.501Z,77.10
2018-10-18T16:29:56.701Z,77.76
2018-10-18T16:32:25.562Z,78.71
2018-10-18T16:34:54.498Z,79.84
2018-10-18T16:37:23.290Z,81.41
2018-10-18T16:39:52.234Z,81.76
2018-10-18T16:42:21.244Z,80.40
2018-10-18T16:44:50.256Z,79.35
2018-10-18T16:47:19.091Z,79.22
2018-10-18T16:49:48.020Z,78.29
2018-10-18T16:52:16.940Z,77.74
2018-10-18T16:54:45.860Z,77.40
2018-10-18T16:57:14.713Z,76.84
2018-10-18T16:59:43.613Z,76.92
2018-10-18T17:02:12.526Z,77.21
2018-10-18T17:04:41.558Z,77.66
2018-10-18T17:07:10.344Z,77.31
2018-10-18T17:09:39.334Z,77.84
2018-10-18T17:12:08.501Z,78.12
2018-10-18T17:14:37.355Z,78.43
2018-10-18T17:17:06.450Z,78.79
2018-10-18T17:19:35.336Z,78.71
2018-10-18T17:22:04.416Z,79.26
2018-10-18T17:24:33.309Z,79.42
2018-10-18T17:27:02.250Z,79.86
2018-10-18T17:29:31.109Z,79.95
2018-10-18T17:32:00.136Z,80.06
2018-10-18T17:34:29.017Z,80.10
2018-10-18T17:36:57.877Z,79.98
2018-10-18T17:39:26.784Z,80.78
2018-10-18T17:41:55.721Z,80.95
2018-10-18T17:44:24.857Z,81.09
2018-10-18T17:46:53.784Z,82.01
2018-10-18T17:49:22.649Z,82.01
2018-10-18T17:51:51.627Z,82.88
2018-10-18T17:54:20.581Z,82.62
2018-10-18T17:56:49.517Z,82.45
2018-10-18T17:59:18.486Z,82.37
2018-10-18T18:01:47.511Z,82.77
2018-10-18T18:04:16.420Z,82.80
2018-10-18T18:06:45.459Z,83.15
2018-10-18T18:09:14.434Z,83.47
2018-10-18T18:11:43.323Z,83.87
2018-10-18T18:14:12.245Z,83.64
2018-10-18T18:16:41.155Z,84.12
2018-10-18T18:19:10.087Z,84.50
2018-10-18T18:21:39.088Z,84.24
2018-10-18T18:24:08.022Z,83.87
2018-10-18T18:26:45.220Z,84.58
2018-10-18T18:29:05.844Z,84.34
2018-10-18T18:31:34.671Z,84.82
2018-10-18T18:34:03.741Z,84.60
2018-10-18T18:36:32.560Z,84.51
2018-10-18T18:39:01.452Z,84.97
2018-10-18T18:41:30.287Z,84.91
2018-10-18T18:43:59.236Z,84.58
2018-10-18T18:46:29.026Z,84.75
2018-10-18T18:48:57.939Z,85.76
2018-10-18T18:51:26.886Z,85.15
2018-10-18T18:53:56.037Z,85.78
2018-10-18T18:56:24.885Z,85.32
2018-10-18T18:58:53.792Z,86.16
2018-10-18T19:01:22.836Z,85.53
2018-10-18T19:03:51.709Z,85.89
2018-10-18T19:06:20.865Z,85.74
2018-10-18T19:08:50.075Z,85.22
2018-10-18T19:11:19.571Z,85.06
2018-10-18T19:13:48.415Z,85.51
2018-10-18T19:16:17.330Z,84.92
2018-10-18T19:18:46.146Z,86.17
2018-10-18T19:21:15.038Z,85.88
2018-10-18T19:23:43.956Z,85.77
2018-10-18T19:26:12.878Z,85.30
2018-10-18T19:28:41.776Z,85.18
2018-10-18T19:31:10.632Z,85.56
2018-10-18T19:33:39.518Z,85.42
2018-10-18T19:36:08.473Z,85.51
2018-10-18T19:38:37.382Z,85.65
2018-10-18T19:41:06.248Z,85.15
2018-10-18T19:43:35.114Z,85.37
2018-10-18T19:46:05.030Z,85.78
2018-10-18T19:48:33.952Z,85.08
2018-10-18T19:51:02.845Z,85.41
2018-10-18T19:53:31.668Z,85.93
2018-10-18T19:56:00.513Z,85.35
2018-10-18T19:58:29.662Z,85.60
2018-10-18T20:00:58.581Z,86.85
2018-10-18T20:03:27.409Z,86.08
2018-10-18T20:05:56.296Z,86.87
2018-10-18T20:08:25.085Z,87.16
2018-10-18T20:10:53.899Z,86.38
2018-10-18T20:13:22.835Z,87.16
2018-10-18T20:15:51.677Z,87.72
2018-10-18T20:18:20.627Z,87.15
2018-10-18T20:20:49.477Z,87.06
2018-10-18T20:23:18.316Z,87.33
2018-10-18T20:25:47.422Z,87.52
2018-10-18T20:28:16.418Z,87.69
2018-10-18T20:30:45.235Z,86.82
2018-10-18T20:33:14.171Z,86.49
2018-10-18T20:35:43.078Z,87.42
2018-10-18T20:38:12.094Z,87.80
2018-10-18T20:40:41.202Z,87.83
2018-10-18T20:43:10.093Z,87.59
2018-10-18T20:45:38.907Z,87.65
2018-10-18T20:48:07.943Z,87.53
2018-10-18T20:50:36.721Z,88.30
2018-10-18T20:53:05.699Z,88.07
2018-10-18T20:55:34.558Z,88.28
2018-10-18T20:58:03.652Z,88.69
2018-10-18T21:00:32.516Z,87.87
2018-10-18T21:03:01.578Z,87.77
2018-10-18T21:05:30.406Z,88.54
2018-10-18T21:07:59.244Z,88.93
2018-10-18T21:10:28.178Z,89.20
2018-10-18T21:12:57.065Z,88.87
2018-10-18T21:15:25.984Z,89.62
2018-10-18T21:17:54.830Z,89.66
2018-10-18T21:20:23.709Z,89.53
2018-10-18T21:22:52.550Z,90.17
2018-10-18T21:25:21.415Z,90.32
2018-10-18T21:27:50.362Z,89.90
2018-10-18T21:30:19.272Z,90.34
2018-10-18T21:32:48.087Z,90.09
2018-10-18T21:35:17.019Z,89.35
2018-10-18T21:37:45.757Z,90.02
2018-10-18T21:40:14.931Z,90.62
2018-10-18T21:42:43.739Z,90.61
2018-10-18T21:45:12.879Z,90.34
2018-10-18T21:47:42.170Z,90.60
2018-10-18T21:50:11.057Z,91.21
2018-10-18T21:52:39.989Z,91.44
2018-10-18T21:55:09.160Z,91.70
2018-10-18T21:57:37.972Z,91.70
2018-10-18T22:00:13.284Z,92.77
2018-10-18T22:02:43.267Z,90.75
2018-10-18T22:05:13.218Z,91.86
2018-10-18T22:07:42.521Z,91.11
2018-10-18T22:10:12.146Z,90.87
2018-10-18T22:12:41.076Z,91.88
2018-10-18T22:15:10.677Z,90.41
2018-10-18T22:17:39.555Z,90.71
2018-10-18T22:20:09.867Z,91.08
2018-10-18T22:22:38.748Z,91.59
2018-10-18T22:25:08.932Z,91.95
2018-10-18T22:27:37.961Z,91.72
2018-10-18T22:30:07.632Z,91.95
2018-10-18T22:32:36.820Z,92.09
2018-10-18T22:35:05.794Z,91.35
2018-10-18T22:37:34.625Z,90.88
2018-10-18T22:40:03.697Z,91.26
2018-10-18T22:42:32.607Z,90.95
2018-10-18T22:45:02.430Z,90.68
2018-10-18T22:47:31.280Z,90.61
2018-10-18T22:50:00.117Z,90.01
2018-10-18T22:52:29.041Z,90.44
2018-10-18T22:54:57.920Z,90.72
2018-10-18T22:57:26.813Z,89.89
2018-10-18T22:59:55.630Z,90.11
2018-10-18T23:02:24.512Z,90.57
2018-10-18T23:04:53.428Z,90.53
2018-10-18T23:07:22.271Z,91.14
2018-10-18T23:09:51.384Z,92.01
2018-10-18T23:12:20.200Z,93.12
2018-10-18T23:14:49.064Z,92.45
2018-10-18T23:17:17.933Z,91.77
2018-10-18T23:19:46.810Z,92.18
2018-10-18T23:22:15.647Z,91.47
2018-10-18T23:24:44.547Z,91.90
2018-10-18T23:27:12.807Z,91.77
2018-10-18T23:29:41.699Z,91.77
2018-10-18T23:32:10.872Z,92.13
2018-10-18T23:34:39.782Z,92.27
2018-10-18T23:37:08.597Z,91.09
2018-10-18T23:39:37.797Z,90.71
2018-10-18T23:42:06.696Z,91.15
2018-10-18T23:44:35.631Z,90.71
2018-10-18T23:47:05.144Z,90.76
2018-10-18T23:49:34.018Z,89.80
2018-10-18T23:52:02.894Z,90.13
2018-10-18T23:54:32.002Z,89.61
2018-10-18T23:57:00.890Z,89.50
2018-10-18T23:59:29.722Z,88.96
